Time;durP1;ratioP1;P1;durP2;ratioP2;P2;SDS_P1;SDS_P2;PMS_P1;PMS_P2;Temp;Humidity;BMP_temperature;BMP_pressure;BME280_temperature;BME280_humidity;BME280_pressure;Samples;Min_cycle;Max_cycle;Signal;HPM_P1;HPM_P2
2022/04/04 00:02:53;;;;;;;7.80;2.40;;;;;;;-0.15;74.25;99181.80;103737;1277;1003147;-65
2022/04/04 00:05:41;;;;;;;11.70;4.10;;;;;;;-0.14;73.98;99174.97;104263;1278;67560;-63
2022/04/04 00:08:30;;;;;;;8.50;2.70;;;;;;;-0.15;74.64;99171.89;104326;1278;72512;-63
2022/04/04 00:11:20;;;;;;;7.50;2.60;;;;;;;-0.17;74.64;99165.86;104500;1280;59730;-63
2022/04/04 00:14:07;;;;;;;7.80;2.40;;;;;;;-0.17;74.48;99156.98;104347;1277;62370;-63
2022/04/04 00:17:00;;;;;;;8.50;2.50;;;;;;;-0.21;75.22;99151.76;104467;1279;73811;-63
2022/04/04 00:19:48;;;;;;;9.30;3.20;;;;;;;-0.25;75.53;99148.30;104476;1277;67171;-66
2022/04/04 00:22:37;;;;;;;8.50;2.60;;;;;;;-0.26;75.84;99144.51;104369;1279;73481;-67
2022/04/04 00:25:24;;;;;;;9.70;2.90;;;;;;;-0.23;75.94;99150.83;104312;1277;59800;-69
2022/04/04 00:28:14;;;;;;;8.00;2.40;;;;;;;-0.19;76.05;99142.27;104273;1281;59652;-65
2022/04/04 00:31:02;;;;;;;9.00;2.40;;;;;;;-0.16;76.00;99132.88;104529;1277;73873;-64
2022/04/04 00:33:50;;;;;;;9.90;2.20;;;;;;;-0.18;76.19;99128.42;104290;1281;68671;-68
2022/04/04 00:36:39;;;;;;;7.50;2.20;;;;;;;-0.22;76.78;99128.61;104351;1278;71278;-66
2022/04/04 00:39:27;;;;;;;7.80;2.70;;;;;;;-0.25;77.76;99121.80;104468;1279;59918;-66
2022/04/04 00:42:16;;;;;;;8.50;2.60;;;;;;;-0.26;78.33;99114.88;104381;1281;60734;-67
2022/04/04 00:45:05;;;;;;;10.90;2.90;;;;;;;-0.25;78.75;99113.25;103666;1281;1003762;-70
2022/04/04 00:47:53;;;;;;;8.40;2.70;;;;;;;-0.20;79.05;99110.93;104468;1278;70261;-71
2022/04/04 00:50:41;;;;;;;8.00;2.50;;;;;;;-0.15;79.06;99106.69;104422;1278;74513;-69
2022/04/04 00:53:31;;;;;;;6.90;2.40;;;;;;;-0.12;79.59;99104.27;104411;1277;59795;-65
2022/04/04 00:56:19;;;;;;;8.30;2.80;;;;;;;-0.09;80.18;99102.75;104289;1281;60637;-64
2022/04/04 00:59:11;;;;;;;9.20;2.80;;;;;;;-0.06;79.97;99107.11;104255;1278;71954;-65
2022/04/04 01:02:04;;;;;;;7.60;2.30;;;;;;;-0.01;79.61;99101.61;104266;1281;69335;-63
2022/04/04 01:04:52;;;;;;;10.20;2.90;;;;;;;0.05;79.75;99096.26;104438;1278;74024;-63
2022/04/04 01:07:40;;;;;;;6.10;2.40;;;;;;;0.11;80.93;99090.54;104364;1281;59808;-64
2022/04/04 01:10:30;;;;;;;15.20;2.40;;;;;;;0.13;81.87;99088.70;104582;1277;62353;-63
2022/04/04 01:13:18;;;;;;;7.60;2.40;;;;;;;0.14;82.45;99081.30;104335;1281;73524;-71
2022/04/04 01:16:06;;;;;;;7.80;2.60;;;;;;;0.15;83.76;99084.09;104532;1278;67311;-63
2022/04/04 01:18:54;;;;;;;6.60;2.50;;;;;;;0.12;86.14;99083.70;104329;1280;73638;-65
2022/04/04 01:21:42;;;;;;;9.40;2.60;;;;;;;0.08;88.35;99075.01;104680;1277;60046;-64
2022/04/04 01:24:29;;;;;;;7.60;2.80;;;;;;;0.06;89.36;99073.01;104262;1281;59711;-65
2022/04/04 01:27:18;;;;;;;7.80;2.50;;;;;;;0.05;90.19;99072.70;104523;1277;72903;-64
2022/04/04 01:30:10;;;;;;;7.30;2.70;;;;;;;0.04;89.08;99071.35;104443;1281;68574;-65
2022/04/04 01:32:59;;;;;;;7.60;2.40;;;;;;;0.05;89.43;99066.09;104096;1281;74440;-63
2022/04/04 01:35:47;;;;;;;7.70;2.80;;;;;;;0.04;90.20;99064.02;104512;1278;59812;-64
2022/04/04 01:38:35;;;;;;;6.30;2.60;;;;;;;0.05;91.24;99057.58;104497;1281;61850;-63
2022/04/04 01:41:24;;;;;;;8.00;2.30;;;;;;;0.05;92.09;99054.09;104362;1277;72489;-63
2022/04/04 01:44:13;;;;;;;7.20;1.90;;;;;;;0.04;93.14;99048.54;104282;1281;69625;-64
2022/04/04 01:47:01;;;;;;;6.20;2.20;;;;;;;0.02;94.53;99049.16;104191;1278;74286;-64
2022/04/04 01:49:48;;;;;;;6.50;2.30;;;;;;;-0.01;94.96;99046.33;104552;1277;59697;-62
2022/04/04 01:52:37;;;;;;;7.60;3.00;;;;;;;0.01;94.91;99040.13;104283;1281;62040;-63
2022/04/04 01:55:25;;;;;;;7.30;3.00;;;;;;;0.05;94.47;99037.85;104424;1277;73493;-62
2022/04/04 01:58:12;;;;;;;7.20;2.80;;;;;;;0.08;94.97;99028.74;104330;1277;69008;-63
2022/04/04 02:01:04;;;;;;;6.80;2.20;;;;;;;0.13;94.49;99030.98;104370;1277;74501;-64
2022/04/04 02:03:56;;;;;;;6.20;2.00;;;;;;;0.19;94.46;99026.16;104477;1281;59825;-64
2022/04/04 02:06:44;;;;;;;6.70;2.00;;;;;;;0.23;94.92;99022.95;104391;1280;59674;-66
2022/04/04 02:09:33;;;;;;;7.20;2.90;;;;;;;0.28;94.83;99013.80;104271;1279;73873;-67
2022/04/04 02:12:21;;;;;;;8.00;2.80;;;;;;;0.31;95.24;99005.06;104372;1278;69682;-62
2022/04/04 02:15:09;;;;;;;8.90;3.30;;;;;;;0.37;94.50;99002.16;104311;1281;74594;-63
2022/04/04 02:17:57;;;;;;;8.40;3.00;;;;;;;0.41;95.24;98996.72;104531;1277;60577;-62
2022/04/04 02:20:47;;;;;;;6.90;2.60;;;;;;;0.44;95.21;98996.38;104418;1281;61065;-60
2022/04/04 02:23:35;;;;;;;7.70;2.90;;;;;;;0.47;95.49;98988.52;104246;1278;73658;-62
2022/04/04 02:26:24;;;;;;;10.40;3.90;;;;;;;0.50;95.11;98987.52;104552;1279;68089;-62
2022/04/04 02:29:11;;;;;;;7.70;2.80;;;;;;;0.53;95.00;98987.87;104545;1277;72289;-65
2022/04/04 02:31:59;;;;;;;6.90;3.20;;;;;;;0.57;95.65;98979.84;104473;1281;60486;-62
2022/04/04 02:34:48;;;;;;;7.40;2.70;;;;;;;0.59;95.59;98979.20;104341;1277;62118;-63
2022/04/04 02:37:36;;;;;;;7.40;3.50;;;;;;;0.61;95.67;98974.36;104258;1280;75283;-66
2022/04/04 02:40:23;;;;;;;10.30;3.60;;;;;;;0.63;95.36;98970.77;104298;1278;67566;-63
2022/04/04 02:43:12;;;;;;;7.10;3.20;;;;;;;0.66;95.39;98973.06;104232;1281;74545;-66
2022/04/04 02:45:59;;;;;;;8.50;3.40;;;;;;;0.67;95.24;98963.38;104247;1281;60712;-63
2022/04/04 02:48:47;;;;;;;9.70;3.60;;;;;;;0.71;95.19;98960.93;104481;1277;61443;-64
2022/04/04 02:51:35;;;;;;;10.30;3.20;;;;;;;0.73;95.34;98959.45;104321;1277;73908;-64
2022/04/04 02:54:24;;;;;;;8.90;3.30;;;;;;;0.75;95.99;98958.92;104404;1277;69415;-66
2022/04/04 02:57:14;;;;;;;8.70;2.80;;;;;;;0.74;96.16;98952.89;104327;1277;72997;-64
2022/04/04 03:00:02;;;;;;;8.40;3.90;;;;;;;0.77;95.57;98952.73;104394;1281;59591;-64
2022/04/04 03:02:51;;;;;;;7.80;3.40;;;;;;;0.78;95.94;98949.69;104502;1277;62076;-66
2022/04/04 03:05:39;;;;;;;8.70;3.50;;;;;;;0.80;95.79;98947.13;104543;1277;73241;-66
2022/04/04 03:08:27;;;;;;;9.50;3.30;;;;;;;0.83;95.67;98948.17;104346;1277;69695;-65
2022/04/04 03:11:15;;;;;;;9.10;3.80;;;;;;;0.87;95.69;98947.13;104364;1277;74549;-63
2022/04/04 03:14:05;;;;;;;7.30;2.30;;;;;;;0.89;95.51;98942.29;104683;1277;59579;-62
2022/04/04 03:16:52;;;;;;;9.20;3.80;;;;;;;0.91;95.57;98938.89;104297;1281;61601;-63
2022/04/04 03:19:40;;;;;;;9.00;3.70;;;;;;;0.93;95.55;98934.92;105395;1277;74779;-62
2022/04/04 03:22:28;;;;;;;7.70;3.10;;;;;;;0.93;95.96;98933.84;104528;1277;69149;-63
2022/04/04 03:25:17;;;;;;;8.20;3.40;;;;;;;0.93;95.95;98930.16;104323;1281;73710;-62
2022/04/04 03:28:04;;;;;;;8.40;3.30;;;;;;;0.94;96.03;98932.75;104462;1277;59681;-63
2022/04/04 03:30:53;;;;;;;9.30;3.30;;;;;;;0.95;95.76;98926.55;104329;1277;62135;-63
2022/04/04 03:33:43;;;;;;;8.10;3.10;;;;;;;0.96;96.05;98921.44;104248;1281;72817;-68
2022/04/04 03:36:31;;;;;;;8.20;3.30;;;;;;;0.99;96.13;98913.62;104683;1277;68562;-63
2022/04/04 03:39:19;;;;;;;8.60;3.20;;;;;;;1.00;96.03;98911.10;104291;1277;74632;-64
2022/04/04 03:42:08;;;;;;;7.80;3.20;;;;;;;1.00;96.57;98907.09;104315;1278;59653;-64
2022/04/04 03:44:56;;;;;;;7.00;2.80;;;;;;;1.00;96.27;98903.73;104291;1281;60347;-63
2022/04/04 03:47:44;;;;;;;7.20;2.50;;;;;;;1.01;96.50;98900.92;104252;1277;74086;-63
2022/04/04 03:50:32;;;;;;;9.60;3.30;;;;;;;1.03;96.21;98894.89;104438;1277;67192;-63
2022/04/04 03:53:21;;;;;;;9.80;3.50;;;;;;;1.06;96.11;98890.33;104373;1281;73573;-63
2022/04/04 03:56:11;;;;;;;7.60;2.70;;;;;;;1.09;96.03;98891.00;104214;1277;59656;-64
2022/04/04 03:58:59;;;;;;;8.50;2.90;;;;;;;1.11;96.10;98882.50;104283;1281;60567;-65
2022/04/04 04:01:47;;;;;;;7.70;3.00;;;;;;;1.15;95.72;98877.95;104322;1278;74934;-65
2022/04/04 04:04:35;;;;;;;8.30;3.30;;;;;;;1.16;95.80;98874.36;104409;1281;68483;-68
2022/04/04 04:07:24;;;;;;;9.70;3.10;;;;;;;1.17;95.72;98871.35;104323;1278;73532;-64
2022/04/04 04:10:13;;;;;;;10.00;2.80;;;;;;;1.16;95.73;98869.15;104395;1281;59950;-65
2022/04/04 04:13:05;;;;;;;9.30;3.10;;;;;;;1.17;95.35;98863.66;104228;1277;60416;-65
2022/04/04 04:15:53;;;;;;;7.40;2.90;;;;;;;1.19;95.20;98866.67;104334;1278;75099;-64
2022/04/04 04:18:42;;;;;;;7.30;2.40;;;;;;;1.21;95.07;98862.73;104199;1281;65696;-64
2022/04/04 04:21:30;;;;;;;6.80;2.70;;;;;;;1.20;95.25;98850.73;104442;1278;73422;-66
2022/04/04 04:24:17;;;;;;;8.50;3.30;;;;;;;1.20;95.08;98846.54;104215;1278;59669;-65
2022/04/04 04:27:05;;;;;;;9.10;2.90;;;;;;;1.21;95.23;98844.38;104461;1278;59989;-65
2022/04/04 04:29:53;;;;;;;7.50;2.90;;;;;;;1.23;95.12;98839.37;104362;1281;72704;-65
2022/04/04 04:32:48;;;;;;;7.90;2.50;;;;;;;1.26;95.06;98833.25;104464;1277;67422;-69
2022/04/04 04:35:36;;;;;;;8.30;3.40;;;;;;;1.29;94.84;98825.59;103894;1281;73583;-64
2022/04/04 04:38:24;;;;;;;8.50;3.30;;;;;;;1.31;94.87;98825.83;104380;1280;59656;-63
2022/04/04 04:41:12;;;;;;;8.30;2.80;;;;;;;1.33;94.63;98824.11;104485;1277;61634;-63
2022/04/04 04:44:03;;;;;;;6.70;2.70;;;;;;;1.34;94.86;98820.69;104266;1279;74146;-64
2022/04/04 04:46:52;;;;;;;10.60;3.30;;;;;;;1.32;94.91;98811.38;104237;1277;68508;-67
2022/04/04 04:49:41;;;;;;;8.80;3.10;;;;;;;1.40;94.78;98817.94;104216;1280;73480;-66
2022/04/04 04:52:29;;;;;;;7.80;2.90;;;;;;;1.40;94.51;98812.89;104431;1278;59681;-66
2022/04/04 04:55:19;;;;;;;7.60;3.10;;;;;;;1.42;94.64;98811.20;104829;1278;61459;-66
2022/04/04 04:58:07;;;;;;;8.10;3.20;;;;;;;1.43;94.32;98812.18;104463;1278;74665;-64
2022/04/04 05:00:54;;;;;;;8.40;3.20;;;;;;;1.45;94.03;98811.50;103209;1278;1003790;-68
2022/04/04 05:03:42;;;;;;;8.30;3.40;;;;;;;1.48;94.07;98808.34;104637;1277;74407;-68
2022/04/04 05:06:32;;;;;;;7.40;2.60;;;;;;;1.49;93.99;98807.10;104463;1279;59786;-68
2022/04/04 05:09:19;;;;;;;6.50;2.70;;;;;;;1.46;94.07;98803.25;104379;1278;60581;-68
2022/04/04 05:12:08;;;;;;;8.50;3.50;;;;;;;1.47;93.92;98798.64;104425;1277;72658;-68
2022/04/04 05:14:56;;;;;;;8.90;4.20;;;;;;;1.49;93.80;98807.09;104431;1278;67597;-69
2022/04/04 05:17:44;;;;;;;8.60;3.90;;;;;;;1.51;93.66;98803.61;103729;1278;1002513;-65
2022/04/04 05:20:31;;;;;;;8.20;3.30;;;;;;;1.58;93.61;98794.65;105141;1278;59786;-64
2022/04/04 05:23:19;;;;;;;7.30;3.10;;;;;;;1.59;93.30;98800.33;104358;1277;60516;-66
2022/04/04 05:26:09;;;;;;;9.60;3.90;;;;;;;1.66;93.39;98802.35;104649;1278;73671;-71
2022/04/04 05:28:57;;;;;;;10.20;3.80;;;;;;;1.71;92.93;98796.67;104616;1278;66330;-66
2022/04/04 05:31:50;;;;;;;9.30;4.20;;;;;;;1.74;93.11;98798.26;104821;1277;72725;-65
2022/04/04 05:34:38;;;;;;;8.10;3.60;;;;;;;1.72;92.82;98801.15;104365;1279;59591;-66
2022/04/04 05:37:26;;;;;;;7.50;3.20;;;;;;;1.71;93.01;98794.91;104554;1278;62072;-69
2022/04/04 05:40:14;;;;;;;6.60;2.80;;;;;;;1.70;92.92;98797.09;104435;1279;73649;-68
2022/04/04 05:43:02;;;;;;;6.60;2.90;;;;;;;1.72;92.94;98791.70;103538;1278;1003061;-68
2022/04/04 05:45:50;;;;;;;7.90;2.90;;;;;;;1.72;93.18;98791.52;104274;1278;73568;-68
2022/04/04 05:48:40;;;;;;;8.00;3.40;;;;;;;1.68;93.23;98785.12;104221;1279;59872;-69
2022/04/04 05:51:28;;;;;;;7.40;3.00;;;;;;;1.66;93.48;98786.67;104238;1279;60326;-69
2022/04/04 05:54:53;;;;;;;9.40;3.20;;;;;;;1.68;93.55;98780.94;104190;1278;73838;-68
2022/04/04 05:57:59;;;;;;;7.50;3.00;;;;;;;1.71;93.63;98781.27;104242;1278;69561;-69
2022/04/04 06:01:00;;;;;;;8.20;3.50;;;;;;;1.77;93.43;98778.48;104282;1278;71629;-71
2022/04/04 06:03:50;;;;;;;7.40;2.90;;;;;;;1.78;93.18;98774.56;104225;1278;59681;-70
2022/04/04 06:06:39;;;;;;;6.60;2.40;;;;;;;1.80;93.14;98773.89;104706;1278;62229;-68
2022/04/04 06:09:27;;;;;;;8.40;3.20;;;;;;;1.85;93.15;98774.29;103567;1278;1003545;-70
2022/04/04 06:12:14;;;;;;;6.20;2.40;;;;;;;1.93;92.93;98775.38;104372;1277;68379;-66
2022/04/04 06:15:03;;;;;;;6.50;2.80;;;;;;;1.97;92.42;98776.14;104252;1277;74442;-66
2022/04/04 06:17:52;;;;;;;6.30;2.40;;;;;;;1.99;92.39;98771.13;104261;1278;59826;-66
2022/04/04 06:20:41;;;;;;;7.70;2.90;;;;;;;2.00;92.37;98767.56;104523;1278;59678;-63
2022/04/04 06:23:30;;;;;;;7.00;3.10;;;;;;;2.01;92.22;98765.91;104313;1278;73825;-63
2022/04/04 06:26:18;;;;;;;6.40;2.30;;;;;;;2.03;91.85;98759.70;104277;1278;69059;-65
2022/04/04 06:29:09;;;;;;;7.90;2.20;;;;;;;2.04;91.74;98764.52;104299;1278;74000;-65
2022/04/04 06:31:58;;;;;;;6.50;2.10;;;;;;;2.08;91.77;98763.42;104205;1278;59696;-70
2022/04/04 06:34:47;;;;;;;7.40;2.40;;;;;;;2.04;91.49;98762.58;104360;1278;61865;-65
2022/04/04 06:37:36;;;;;;;6.70;2.30;;;;;;;2.01;91.76;98759.27;104264;1279;73086;-64
2022/04/04 06:40:24;;;;;;;6.80;2.50;;;;;;;2.04;91.77;98759.79;104461;1278;69553;-68
2022/04/04 06:43:12;;;;;;;6.20;2.00;;;;;;;2.09;91.93;98760.56;104233;1278;73293;-68
2022/04/04 06:46:01;;;;;;;5.30;1.80;;;;;;;2.14;91.57;98757.07;104264;1278;59649;-69
2022/04/04 06:48:51;;;;;;;6.10;2.10;;;;;;;2.13;91.09;98749.24;104279;1278;59770;-68
2022/04/04 06:51:39;;;;;;;6.10;2.10;;;;;;;2.15;91.27;98747.77;104319;1278;75246;-70
2022/04/04 06:54:27;;;;;;;6.00;2.50;;;;;;;2.15;90.97;98747.02;104873;1278;67489;-69
2022/04/04 06:57:18;;;;;;;6.10;2.40;;;;;;;2.22;90.73;98742.88;104394;1277;74533;-69
2022/04/04 07:00:08;;;;;;;6.30;2.20;;;;;;;2.32;90.21;98744.91;104329;1279;59797;-71
2022/04/04 07:02:58;;;;;;;6.30;2.50;;;;;;;2.38;89.91;98742.38;104409;1279;60896;-70
2022/04/04 07:05:46;;;;;;;6.10;2.20;;;;;;;2.45;89.83;98741.96;104275;1278;1003896;-70
2022/04/04 07:08:34;;;;;;;7.10;2.90;;;;;;;2.53;89.44;98743.52;104660;1278;69848;-68
2022/04/04 07:11:22;;;;;;;6.50;2.50;;;;;;;2.56;89.19;98733.02;104291;1279;73421;-67
2022/04/04 07:14:10;;;;;;;5.60;1.90;;;;;;;2.63;88.63;98723.99;104550;1279;59668;-67
2022/04/04 07:17:00;;;;;;;6.40;2.50;;;;;;;2.66;87.92;98726.76;104522;1279;59556;-68
2022/04/04 07:19:49;;;;;;;5.80;2.00;;;;;;;2.67;87.85;98721.40;104931;1279;74015;-68
2022/04/04 07:22:41;;;;;;;6.20;2.50;;;;;;;2.70;87.45;98720.55;104430;1278;67755;-66
2022/04/04 07:25:28;;;;;;;7.70;2.60;;;;;;;2.64;87.32;98723.20;104523;1278;74518;-66
2022/04/04 07:28:16;;;;;;;6.50;2.70;;;;;;;2.59;87.38;98712.21;104950;1277;60415;-66
2022/04/04 07:31:09;;;;;;;6.50;2.50;;;;;;;2.67;87.16;98715.30;104325;1279;61018;-65
2022/04/04 07:33:58;;;;;;;5.90;2.50;;;;;;;2.68;86.85;98722.57;104369;1278;73868;-67
2022/04/04 07:36:46;;;;;;;6.30;2.40;;;;;;;2.72;86.78;98709.67;104598;1279;69600;-66
2022/04/04 07:39:36;;;;;;;6.90;2.50;;;;;;;2.76;86.70;98712.41;104389;1278;74545;-68
2022/04/04 07:42:24;;;;;;;7.50;3.30;;;;;;;2.82;86.43;98717.48;104367;1278;59670;-67
2022/04/04 07:45:16;;;;;;;6.70;2.80;;;;;;;2.87;86.04;98705.70;104378;1278;60562;-65
2022/04/04 07:48:05;;;;;;;7.30;2.80;;;;;;;2.93;85.52;98705.71;104281;1279;73904;-65
2022/04/04 07:50:55;;;;;;;8.90;3.30;;;;;;;2.90;84.84;98703.98;104625;1278;67498;-65
2022/04/04 07:53:44;;;;;;;6.50;2.70;;;;;;;2.95;84.72;98705.41;104786;1279;74487;-66
2022/04/04 07:56:32;;;;;;;6.50;2.60;;;;;;;3.02;84.61;98695.94;104335;1279;59812;-66
2022/04/04 07:59:20;;;;;;;7.20;2.90;;;;;;;3.12;84.31;98700.19;104281;1278;60282;-65
2022/04/04 08:02:08;;;;;;;7.30;2.80;;;;;;;3.31;83.37;98697.48;104468;1278;71752;-67
2022/04/04 08:04:56;;;;;;;9.20;3.40;;;;;;;3.56;82.33;98692.93;104364;1279;67542;-66
2022/04/04 08:07:47;;;;;;;8.00;3.50;;;;;;;3.65;81.08;98690.56;104372;1278;73590;-65
2022/04/04 08:10:36;;;;;;;9.30;3.20;;;;;;;3.64;80.64;98695.73;104312;1278;59737;-66
2022/04/04 08:13:24;;;;;;;8.70;3.30;;;;;;;3.56;80.35;98693.47;104310;1278;61054;-66
2022/04/04 08:16:12;;;;;;;8.30;3.50;;;;;;;3.51;80.44;98692.93;104475;1278;72690;-68
2022/04/04 08:19:02;;;;;;;9.50;3.10;;;;;;;3.52;80.43;98692.36;104360;1277;69618;-67
2022/04/04 08:21:50;;;;;;;8.30;3.70;;;;;;;3.49;80.09;98692.75;104921;1278;73139;-68
2022/04/04 08:24:41;;;;;;;9.20;3.70;;;;;;;3.47;79.92;98684.48;104376;1279;60162;-68
2022/04/04 08:27:29;;;;;;;7.30;2.90;;;;;;;3.51;79.47;98677.31;104555;1278;59566;-65
2022/04/04 08:30:21;;;;;;;8.80;3.10;;;;;;;3.44;78.31;98673.79;104370;1278;74809;-66
2022/04/04 08:33:09;;;;;;;8.80;3.60;;;;;;;3.51;77.78;98670.88;104392;1278;68624;-65
2022/04/04 08:36:00;;;;;;;12.30;4.10;;;;;;;3.84;76.94;98669.41;104480;1278;75021;-64
2022/04/04 08:38:49;;;;;;;10.50;4.40;;;;;;;4.65;74.60;98646.91;104522;1278;59693;-68
2022/04/04 08:41:38;;;;;;;8.40;3.50;;;;;;;5.89;69.94;98648.53;104649;1278;61568;-69
2022/04/04 08:44:27;;;;;;;9.00;3.40;;;;;;;6.82;65.81;98640.62;104469;1279;75224;-70
2022/04/04 08:47:18;;;;;;;9.80;3.30;;;;;;;7.33;62.95;98639.22;104258;1279;69357;-66
2022/04/04 08:50:07;;;;;;;8.50;2.70;;;;;;;7.49;61.14;98630.80;103837;1278;1003020;-66
2022/04/04 08:52:55;;;;;;;7.20;2.40;;;;;;;7.63;59.21;98621.75;104320;1278;59716;-64
2022/04/04 08:55:47;;;;;;;8.10;3.00;;;;;;;8.38;57.61;98611.55;104351;1278;61139;-66
2022/04/04 08:58:35;;;;;;;7.30;2.50;;;;;;;8.99;54.50;98614.06;104294;1278;73882;-66
2022/04/04 09:01:27;;;;;;;7.90;2.80;;;;;;;8.82;53.41;98603.17;104490;1278;68698;-68
2022/04/04 09:04:17;;;;;;;8.90;3.00;;;;;;;9.32;52.83;98600.86;104572;1278;73541;-66
2022/04/04 09:07:08;;;;;;;6.70;2.50;;;;;;;9.27;52.18;98593.05;104520;1278;400498;-66
2022/04/04 09:09:56;;;;;;;7.60;2.70;;;;;;;9.72;51.87;98589.42;104705;1279;62094;-68
2022/04/04 09:12:48;;;;;;;7.20;2.70;;;;;;;10.09;49.84;98587.29;104596;1278;73221;-69
2022/04/04 09:15:49;;;;;;;9.20;2.90;;;;;;;9.83;50.02;98580.05;104354;1279;66537;-69
2022/04/04 09:18:37;;;;;;;7.40;2.50;;;;;;;9.82;49.32;98575.85;104515;1279;73587;-70
2022/04/04 09:21:25;;;;;;;8.00;2.80;;;;;;;9.53;49.50;98577.47;104718;1277;59693;-70
2022/04/04 09:24:13;;;;;;;7.90;2.40;;;;;;;9.01;50.74;98567.93;104611;1278;59721;-68
2022/04/04 09:27:11;;;;;;;7.40;2.60;;;;;;;8.90;51.75;98572.28;104281;1278;73335;-67
2022/04/04 09:30:19;;;;;;;7.90;2.90;;;;;;;9.29;51.56;98565.44;104465;1278;69579;-67
2022/04/04 09:33:12;;;;;;;7.80;2.80;;;;;;;9.58;50.94;98561.73;104326;1278;74229;-69
2022/04/04 09:36:00;;;;;;;8.20;2.60;;;;;;;9.35;50.59;98554.90;104482;1279;59850;-70
2022/04/04 09:39:08;;;;;;;7.10;2.80;;;;;;;8.95;50.68;98547.05;104321;1277;62670;-67
2022/04/04 09:42:14;;;;;;;7.70;2.40;;;;;;;9.61;49.57;98533.35;104238;1278;72860;-67
2022/04/04 09:45:13;;;;;;;7.90;2.40;;;;;;;9.18;48.78;98534.45;104552;1278;67906;-66
2022/04/04 09:48:09;;;;;;;8.10;2.50;;;;;;;9.30;49.30;98519.34;104422;1279;72082;-68
2022/04/04 09:50:59;;;;;;;7.60;2.30;;;;;;;9.07;49.60;98521.30;104597;1279;59721;-67
2022/04/04 09:54:00;;;;;;;8.40;2.30;;;;;;;9.21;49.17;98507.76;104272;1277;59591;-68
2022/04/04 09:56:50;;;;;;;6.60;2.00;;;;;;;9.51;47.63;98503.79;104219;1278;71689;-66
2022/04/04 09:59:39;;;;;;;7.40;2.10;;;;;;;9.42;47.01;98495.45;104315;1279;67201;-70
2022/04/04 10:02:27;;;;;;;6.70;2.00;;;;;;;9.55;46.51;98494.05;104452;1278;73858;-67
2022/04/04 10:05:17;;;;;;;7.60;1.90;;;;;;;9.63;46.71;98489.16;104692;1278;59713;-66
2022/04/04 10:08:06;;;;;;;5.80;1.80;;;;;;;9.65;46.71;98481.77;104330;1277;60520;-68
2022/04/04 10:10:55;;;;;;;5.40;1.50;;;;;;;10.07;45.99;98488.19;104436;1279;73738;-71
2022/04/04 10:13:46;;;;;;;7.70;1.80;;;;;;;9.98;44.32;98472.94;104519;1278;68578;-68
2022/04/04 10:16:36;;;;;;;5.90;1.70;;;;;;;10.30;42.99;98474.21;104249;1279;73485;-69
2022/04/04 10:19:27;;;;;;;5.40;1.60;;;;;;;10.50;43.58;98468.60;104504;1279;59811;-69
2022/04/04 10:22:15;;;;;;;7.20;2.00;;;;;;;10.58;43.00;98459.79;104778;1278;59629;-68
2022/04/04 10:25:07;;;;;;;6.80;1.90;;;;;;;10.78;41.51;98457.06;104348;1278;73538;-67
2022/04/04 10:27:56;;;;;;;6.40;1.40;;;;;;;10.46;41.39;98452.58;104430;1277;68422;-70
2022/04/04 10:30:48;;;;;;;6.70;1.90;;;;;;;10.14;41.52;98446.17;104475;1278;74186;-68
2022/04/04 10:33:37;;;;;;;7.80;1.60;;;;;;;9.69;42.37;98445.78;104336;1279;59832;-68
2022/04/04 10:36:25;;;;;;;7.10;1.60;;;;;;;9.26;43.00;98443.23;104476;1278;60539;-69
2022/04/04 10:39:13;;;;;;;7.30;1.80;;;;;;;8.94;44.24;98441.56;104538;1279;73787;-69
2022/04/04 10:42:23;;;;;;;9.30;1.90;;;;;;;9.11;44.88;98425.71;104673;1279;67327;-68
2022/04/04 10:45:21;;;;;;;8.10;2.20;;;;;;;9.39;43.66;98423.20;104497;1279;74488;-69
2022/04/04 10:48:10;;;;;;;6.00;1.70;;;;;;;9.25;43.67;98413.81;101558;1278;1004009;-70
2022/04/04 10:51:20;;;;;;;5.70;1.70;;;;;;;8.85;43.38;98416.28;104313;1279;61139;-68
2022/04/04 10:54:11;;;;;;;6.90;1.80;;;;;;;8.83;43.15;98399.60;104643;1277;72254;-71
2022/04/04 10:56:59;;;;;;;9.30;2.10;;;;;;;8.66;43.43;98397.52;104277;1279;68330;-74
2022/04/04 10:59:53;;;;;;;6.90;2.00;;;;;;;8.37;44.02;98401.14;104611;1279;73381;-71
2022/04/04 11:02:43;;;;;;;6.30;1.80;;;;;;;8.40;44.53;98392.90;104248;1278;59610;-71
2022/04/04 11:08:43;;;;;;;8.30;1.90;;;;;;;8.24;44.56;98371.33;104434;1279;73304;-70
2022/04/04 11:12:00;;;;;;;6.10;1.70;;;;;;;8.28;44.70;98368.12;104764;1280;69769;-71
2022/04/04 11:14:57;;;;;;;6.80;2.10;;;;;;;8.34;44.22;98366.10;104458;1278;72949;-70
2022/04/04 11:17:57;;;;;;;7.00;2.00;;;;;;;8.40;43.72;98357.27;104506;1279;59698;-71
2022/04/04 11:20:59;;;;;;;5.60;1.70;;;;;;;8.43;43.21;98348.70;104676;1278;59694;-68
2022/04/04 11:23:47;;;;;;;6.40;1.80;;;;;;;8.43;43.07;98341.38;104500;1279;74187;-75
2022/04/04 11:26:36;;;;;;;6.60;1.80;;;;;;;8.45;43.28;98327.76;104423;1277;68537;-69
2022/04/04 11:29:25;;;;;;;7.90;2.10;;;;;;;8.66;42.66;98330.34;104388;1277;73392;-66
2022/04/04 11:32:16;;;;;;;7.00;1.90;;;;;;;8.83;42.16;98322.73;104623;1278;60008;-71
2022/04/04 11:35:14;;;;;;;6.30;1.70;;;;;;;8.84;42.04;98315.35;104594;1278;59734;-68
2022/04/04 11:38:11;;;;;;;6.60;1.60;;;;;;;8.79;40.04;98310.72;104395;1278;74713;-70
2022/04/04 11:41:11;;;;;;;6.50;1.50;;;;;;;8.91;40.32;98297.70;104491;1278;68943;-67
2022/04/04 11:43:59;;;;;;;6.00;1.50;;;;;;;8.87;40.24;98280.79;104418;1278;74439;-69
2022/04/04 11:47:04;;;;;;;5.50;1.60;;;;;;;8.87;40.41;98275.44;104484;1278;60472;-70
2022/04/04 11:49:54;;;;;;;6.60;1.60;;;;;;;8.87;39.84;98275.61;104610;1278;60623;-69
2022/04/04 11:52:57;;;;;;;4.90;1.40;;;;;;;8.92;39.67;98263.07;104332;1279;72972;-67
2022/04/04 11:55:46;;;;;;;7.40;1.50;;;;;;;8.97;39.00;98246.35;104671;1277;69073;-71
2022/04/04 11:58:37;;;;;;;8.40;1.70;;;;;;;9.13;39.25;98243.35;104418;1278;73441;-69
2022/04/04 12:01:31;;;;;;;7.20;1.70;;;;;;;9.23;38.81;98231.54;104430;1278;59755;-70
2022/04/04 12:04:21;;;;;;;4.70;1.30;;;;;;;9.19;38.45;98230.59;104454;1277;60285;-70
2022/04/04 12:07:11;;;;;;;7.30;1.70;;;;;;;8.93;39.04;98228.31;104488;1278;74758;-70
2022/04/04 12:10:01;;;;;;;6.70;2.10;;;;;;;8.93;39.69;98219.64;104525;1278;68493;-70
2022/04/04 12:13:02;;;;;;;9.50;1.90;;;;;;;9.08;39.55;98217.29;104596;1278;74497;-72
2022/04/04 12:15:53;;;;;;;6.70;1.70;;;;;;;8.71;39.07;98209.14;104759;1278;59802;-68
2022/04/04 12:18:42;;;;;;;5.70;1.60;;;;;;;8.45;40.32;98198.05;104348;1278;60899;-70
2022/04/04 12:21:30;;;;;;;8.30;1.80;;;;;;;8.34;40.76;98184.81;104476;1278;73298;-69
2022/04/04 12:27:29;;;;;;;10.10;1.90;;;;;;;7.96;40.83;98177.52;104268;1278;74558;-71
2022/04/04 12:30:30;;;;;;;11.90;1.70;;;;;;;7.83;39.96;98176.09;104663;1277;59685;-69
2022/04/04 12:33:19;;;;;;;9.30;1.80;;;;;;;7.66;39.57;98155.34;104673;1278;60531;-70
2022/04/04 12:36:08;;;;;;;7.80;1.70;;;;;;;7.63;39.86;98153.52;104348;1278;75011;-70
2022/04/04 12:39:01;;;;;;;7.90;1.80;;;;;;;7.64;39.75;98135.30;104396;1281;67333;-73
2022/04/04 12:41:53;;;;;;;6.80;1.80;;;;;;;7.66;40.73;98138.75;104206;1278;74473;-69
2022/04/04 12:44:41;;;;;;;12.90;2.40;;;;;;;7.46;40.44;98129.13;104423;1278;59786;-68
2022/04/04 12:47:29;;;;;;;10.00;2.10;;;;;;;7.34;40.60;98118.48;104448;1277;59649;-69
2022/04/04 12:50:21;;;;;;;13.00;2.60;;;;;;;7.15;41.57;98110.02;104375;1278;73976;-72
2022/04/04 12:53:11;;;;;;;19.30;3.00;;;;;;;7.13;41.69;98102.14;104848;1277;68652;-66
2022/04/04 12:56:08;;;;;;;15.00;2.50;;;;;;;7.04;42.17;98100.31;104200;1277;73681;-71
2022/04/04 12:59:10;;;;;;;12.30;2.90;;;;;;;6.97;41.80;98094.99;104800;1278;59635;-70
2022/04/04 13:02:10;;;;;;;26.00;3.50;;;;;;;6.77;41.24;98082.36;104699;1278;59656;-70
2022/04/04 13:05:12;;;;;;;14.30;2.90;;;;;;;6.67;41.31;98071.87;104650;1277;75001;-69
2022/04/04 13:07:59;;;;;;;14.60;2.80;;;;;;;6.53;41.79;98067.73;104034;1277;1003093;-68
2022/04/04 13:11:07;;;;;;;15.00;2.50;;;;;;;6.53;41.96;98056.30;104726;1277;73361;-70
2022/04/04 13:14:05;;;;;;;14.70;2.10;;;;;;;6.61;42.09;98036.69;104278;1278;59748;-71
2022/04/04 13:17:02;;;;;;;6.30;1.80;;;;;;;6.60;42.07;98022.64;104449;1281;59707;-69
2022/04/04 13:19:50;;;;;;;20.60;2.80;;;;;;;6.50;42.31;98017.41;104404;1277;73640;-69
2022/04/04 13:22:43;;;;;;;15.70;2.50;;;;;;;6.47;42.49;98004.46;104588;1277;69355;-69
2022/04/04 13:25:32;;;;;;;22.10;3.80;;;;;;;6.44;42.76;97997.87;104506;1278;72355;-68
2022/04/04 13:28:19;;;;;;;21.40;3.20;;;;;;;6.45;43.16;97992.50;104627;1277;59696;-70